sensor_id;sensor_type;location;lat;lon;timestamp;temperature;humidity
17208;DHT22;8720;48.488;9.202;2023-05-10T00:01:21;16.40;82.20
17208;DHT22;8720;48.488;9.202;2023-05-10T00:03:48;16.40;82.80
17208;DHT22;8720;48.488;9.202;2023-05-10T00:06:16;16.40;83.20
17208;DHT22;8720;48.488;9.202;2023-05-10T00:08:44;16.40;83.30
17208;DHT22;8720;48.488;9.202;2023-05-10T00:11:12;16.40;83.30
17208;DHT22;8720;48.488;9.202;2023-05-10T00:13:39;16.40;83.40
17208;DHT22;8720;48.488;9.202;2023-05-10T00:16:08;16.40;83.50
17208;DHT22;8720;48.488;9.202;2023-05-10T00:18:35;16.40;82.90
17208;DHT22;8720;48.488;9.202;2023-05-10T00:21:03;16.40;83.30
17208;DHT22;8720;48.488;9.202;2023-05-10T00:23:30;16.40;83.30
17208;DHT22;8720;48.488;9.202;2023-05-10T00:25:57;16.40;83.30
17208;DHT22;8720;48.488;9.202;2023-05-10T00:28:25;16.30;83.40
17208;DHT22;8720;48.488;9.202;2023-05-10T00:30:54;16.30;83.60
17208;DHT22;8720;48.488;9.202;2023-05-10T00:33:23;16.30;83.70
17208;DHT22;8720;48.488;9.202;2023-05-10T00:35:50;16.30;83.60
17208;DHT22;8720;48.488;9.202;2023-05-10T00:38:18;16.30;84.40
17208;DHT22;8720;48.488;9.202;2023-05-10T00:40:45;16.30;84.50
17208;DHT22;8720;48.488;9.202;2023-05-10T00:43:20;16.30;84.50
17208;DHT22;8720;48.488;9.202;2023-05-10T00:45:47;16.30;85.10
17208;DHT22;8720;48.488;9.202;2023-05-10T00:48:16;16.30;84.20
17208;DHT22;8720;48.488;9.202;2023-05-10T00:50:45;16.30;84.00
17208;DHT22;8720;48.488;9.202;2023-05-10T00:53:12;16.30;83.50
17208;DHT22;8720;48.488;9.202;2023-05-10T00:55:41;16.30;83.90
17208;DHT22;8720;48.488;9.202;2023-05-10T00:58:09;16.30;84.30
17208;DHT22;8720;48.488;9.202;2023-05-10T01:00:36;16.20;83.70
17208;DHT22;8720;48.488;9.202;2023-05-10T01:03:10;16.20;83.70
17208;DHT22;8720;48.488;9.202;2023-05-10T01:05:37;16.20;83.60
17208;DHT22;8720;48.488;9.202;2023-05-10T01:08:06;16.20;84.10
17208;DHT22;8720;48.488;9.202;2023-05-10T01:10:34;16.20;83.40
17208;DHT22;8720;48.488;9.202;2023-05-10T01:13:02;16.20;83.80
17208;DHT22;8720;48.488;9.202;2023-05-10T01:15:30;16.10;83.60
17208;DHT22;8720;48.488;9.202;2023-05-10T01:17:58;16.10;84.30
17208;DHT22;8720;48.488;9.202;2023-05-10T01:20:29;16.10;83.60
17208;DHT22;8720;48.488;9.202;2023-05-10T01:23:28;16.10;83.20
17208;DHT22;8720;48.488;9.202;2023-05-10T01:26:15;16.10;82.10
17208;DHT22;8720;48.488;9.202;2023-05-10T01:29:24;16.10;82.50
17208;DHT22;8720;48.488;9.202;2023-05-10T01:32:26;16.10;82.00
17208;DHT22;8720;48.488;9.202;2023-05-10T01:35:04;16.10;82.20
17208;DHT22;8720;48.488;9.202;2023-05-10T01:37:42;16.00;83.20
17208;DHT22;8720;48.488;9.202;2023-05-10T01:40:19;16.00;83.00
17208;DHT22;8720;48.488;9.202;2023-05-10T01:43:01;16.00;82.90
17208;DHT22;8720;48.488;9.202;2023-05-10T01:45:33;16.00;83.30
17208;DHT22;8720;48.488;9.202;2023-05-10T01:48:09;16.00;83.20
17208;DHT22;8720;48.488;9.202;2023-05-10T01:50:41;16.00;82.60
17208;DHT22;8720;48.488;9.202;2023-05-10T01:53:12;16.00;83.00
17208;DHT22;8720;48.488;9.202;2023-05-10T01:55:47;16.00;83.70
17208;DHT22;8720;48.488;9.202;2023-05-10T01:58:20;16.00;82.70
17208;DHT22;8720;48.488;9.202;2023-05-10T02:03:35;16.00;83.80
17208;DHT22;8720;48.488;9.202;2023-05-10T02:06:06;16.00;83.00
17208;DHT22;8720;48.488;9.202;2023-05-10T02:08:35;16.00;83.70
17208;DHT22;8720;48.488;9.202;2023-05-10T02:11:04;16.00;83.30
17208;DHT22;8720;48.488;9.202;2023-05-10T02:13:34;15.90;83.20
17208;DHT22;8720;48.488;9.202;2023-05-10T02:16:06;15.90;82.80
17208;DHT22;8720;48.488;9.202;2023-05-10T02:18:36;15.90;83.20
17208;DHT22;8720;48.488;9.202;2023-05-10T02:21:03;15.90;82.20
17208;DHT22;8720;48.488;9.202;2023-05-10T02:23:32;15.90;83.20
17208;DHT22;8720;48.488;9.202;2023-05-10T02:26:02;15.90;83.10
17208;DHT22;8720;48.488;9.202;2023-05-10T02:28:32;15.90;82.90
17208;DHT22;8720;48.488;9.202;2023-05-10T02:31:01;15.80;82.50
17208;DHT22;8720;48.488;9.202;2023-05-10T02:33:30;15.80;82.60
17208;DHT22;8720;48.488;9.202;2023-05-10T02:36:01;15.80;82.10
17208;DHT22;8720;48.488;9.202;2023-05-10T02:38:31;15.80;81.40
17208;DHT22;8720;48.488;9.202;2023-05-10T02:41:00;15.80;81.60
17208;DHT22;8720;48.488;9.202;2023-05-10T02:43:30;15.70;81.60
17208;DHT22;8720;48.488;9.202;2023-05-10T02:45:59;15.70;80.90
17208;DHT22;8720;48.488;9.202;2023-05-10T02:48:26;15.70;81.40
17208;DHT22;8720;48.488;9.202;2023-05-10T02:50:56;15.70;81.20
17208;DHT22;8720;48.488;9.202;2023-05-10T02:53:33;15.60;80.70
17208;DHT22;8720;48.488;9.202;2023-05-10T02:56:05;15.60;81.30
17208;DHT22;8720;48.488;9.202;2023-05-10T02:58:40;15.60;80.80
17208;DHT22;8720;48.488;9.202;2023-05-10T03:01:07;15.50;81.50
17208;DHT22;8720;48.488;9.202;2023-05-10T03:03:35;15.50;81.50
17208;DHT22;8720;48.488;9.202;2023-05-10T03:06:04;15.50;81.60
17208;DHT22;8720;48.488;9.202;2023-05-10T03:08:32;15.50;81.30
17208;DHT22;8720;48.488;9.202;2023-05-10T03:11:16;15.50;81.80
17208;DHT22;8720;48.488;9.202;2023-05-10T03:14:09;15.40;80.70
17208;DHT22;8720;48.488;9.202;2023-05-10T03:16:46;15.40;80.60
17208;DHT22;8720;48.488;9.202;2023-05-10T03:19:22;15.40;81.30
17208;DHT22;8720;48.488;9.202;2023-05-10T03:21:55;15.40;81.30
17208;DHT22;8720;48.488;9.202;2023-05-10T03:24:30;15.40;81.50
17208;DHT22;8720;48.488;9.202;2023-05-10T03:27:01;15.40;82.30
17208;DHT22;8720;48.488;9.202;2023-05-10T03:29:31;15.40;82.20
17208;DHT22;8720;48.488;9.202;2023-05-10T03:32:00;15.40;82.40
17208;DHT22;8720;48.488;9.202;2023-05-10T03:34:30;15.40;82.50
17208;DHT22;8720;48.488;9.202;2023-05-10T03:36:59;15.40;82.40
17208;DHT22;8720;48.488;9.202;2023-05-10T03:39:30;15.40;82.00
17208;DHT22;8720;48.488;9.202;2023-05-10T03:41:58;15.30;82.80
17208;DHT22;8720;48.488;9.202;2023-05-10T03:44:26;15.40;83.80
17208;DHT22;8720;48.488;9.202;2023-05-10T03:46:53;15.40;83.40
17208;DHT22;8720;48.488;9.202;2023-05-10T03:49:21;15.40;83.20
17208;DHT22;8720;48.488;9.202;2023-05-10T03:51:48;15.40;83.10
17208;DHT22;8720;48.488;9.202;2023-05-10T03:54:17;15.40;82.90
17208;DHT22;8720;48.488;9.202;2023-05-10T03:56:45;15.40;82.30
17208;DHT22;8720;48.488;9.202;2023-05-10T03:59:14;15.40;83.00
17208;DHT22;8720;48.488;9.202;2023-05-10T04:01:41;15.40;83.20
17208;DHT22;8720;48.488;9.202;2023-05-10T04:04:09;15.40;83.20
17208;DHT22;8720;48.488;9.202;2023-05-10T04:06:37;15.40;83.10
17208;DHT22;8720;48.488;9.202;2023-05-10T04:09:04;15.40;83.30
17208;DHT22;8720;48.488;9.202;2023-05-10T04:11:33;15.40;83.60
17208;DHT22;8720;48.488;9.202;2023-05-10T04:14:00;15.40;83.40
17208;DHT22;8720;48.488;9.202;2023-05-10T04:16:27;15.40;83.90
17208;DHT22;8720;48.488;9.202;2023-05-10T04:18:55;15.40;83.90
17208;DHT22;8720;48.488;9.202;2023-05-10T04:21:23;15.40;84.00
17208;DHT22;8720;48.488;9.202;2023-05-10T04:23:50;15.40;83.50
17208;DHT22;8720;48.488;9.202;2023-05-10T04:26:17;15.40;83.10
17208;DHT22;8720;48.488;9.202;2023-05-10T04:28:46;15.40;83.10
17208;DHT22;8720;48.488;9.202;2023-05-10T04:31:13;15.50;82.50
17208;DHT22;8720;48.488;9.202;2023-05-10T04:33:40;15.50;82.90
17208;DHT22;8720;48.488;9.202;2023-05-10T04:36:08;15.40;82.50
17208;DHT22;8720;48.488;9.202;2023-05-10T04:38:35;15.50;82.30
17208;DHT22;8720;48.488;9.202;2023-05-10T04:41:06;15.50;82.00
17208;DHT22;8720;48.488;9.202;2023-05-10T04:43:35;15.50;80.90
17208;DHT22;8720;48.488;9.202;2023-05-10T04:46:04;15.40;82.60
17208;DHT22;8720;48.488;9.202;2023-05-10T04:48:32;15.40;82.40
17208;DHT22;8720;48.488;9.202;2023-05-10T04:51:00;15.40;82.60
17208;DHT22;8720;48.488;9.202;2023-05-10T04:53:29;15.50;82.30
17208;DHT22;8720;48.488;9.202;2023-05-10T04:55:57;15.50;82.30
17208;DHT22;8720;48.488;9.202;2023-05-10T04:58:24;15.50;82.40
17208;DHT22;8720;48.488;9.202;2023-05-10T05:00:51;15.60;82.30
17208;DHT22;8720;48.488;9.202;2023-05-10T05:03:20;15.60;82.10
17208;DHT22;8720;48.488;9.202;2023-05-10T05:05:47;15.60;81.30
17208;DHT22;8720;48.488;9.202;2023-05-10T05:08:15;15.60;82.10
17208;DHT22;8720;48.488;9.202;2023-05-10T05:10:42;15.60;82.20
17208;DHT22;8720;48.488;9.202;2023-05-10T05:13:09;15.70;82.30
17208;DHT22;8720;48.488;9.202;2023-05-10T05:15:36;15.70;82.40
17208;DHT22;8720;48.488;9.202;2023-05-10T05:18:04;15.70;82.30
17208;DHT22;8720;48.488;9.202;2023-05-10T05:20:33;15.70;81.90
17208;DHT22;8720;48.488;9.202;2023-05-10T05:23:01;15.70;80.90
17208;DHT22;8720;48.488;9.202;2023-05-10T05:25:28;15.80;81.40
17208;DHT22;8720;48.488;9.202;2023-05-10T05:27:56;15.80;81.90
17208;DHT22;8720;48.488;9.202;2023-05-10T05:30:23;15.80;82.00
17208;DHT22;8720;48.488;9.202;2023-05-10T05:32:50;15.80;82.00
17208;DHT22;8720;48.488;9.202;2023-05-10T05:35:18;15.80;82.10
17208;DHT22;8720;48.488;9.202;2023-05-10T05:37:46;15.80;82.30
17208;DHT22;8720;48.488;9.202;2023-05-10T05:40:14;15.90;81.90
17208;DHT22;8720;48.488;9.202;2023-05-10T05:42:41;15.90;82.70
17208;DHT22;8720;48.488;9.202;2023-05-10T05:45:09;15.90;82.60
17208;DHT22;8720;48.488;9.202;2023-05-10T05:47:38;16.00;82.30
17208;DHT22;8720;48.488;9.202;2023-05-10T05:50:06;16.00;82.40
17208;DHT22;8720;48.488;9.202;2023-05-10T05:52:34;16.00;81.70
17208;DHT22;8720;48.488;9.202;2023-05-10T05:55:03;16.10;81.50
17208;DHT22;8720;48.488;9.202;2023-05-10T05:57:31;16.00;80.00
17208;DHT22;8720;48.488;9.202;2023-05-10T05:59:58;16.10;80.90
17208;DHT22;8720;48.488;9.202;2023-05-10T06:02:26;16.00;81.80
17208;DHT22;8720;48.488;9.202;2023-05-10T06:04:53;16.00;81.20
17208;DHT22;8720;48.488;9.202;2023-05-10T06:07:20;16.00;81.30
17208;DHT22;8720;48.488;9.202;2023-05-10T06:09:47;16.00;81.20
17208;DHT22;8720;48.488;9.202;2023-05-10T06:12:16;16.00;81.10
17208;DHT22;8720;48.488;9.202;2023-05-10T06:14:43;16.00;81.50
17208;DHT22;8720;48.488;9.202;2023-05-10T06:17:10;16.00;81.40
17208;DHT22;8720;48.488;9.202;2023-05-10T06:19:38;16.00;81.60
17208;DHT22;8720;48.488;9.202;2023-05-10T06:22:05;16.00;81.60
17208;DHT22;8720;48.488;9.202;2023-05-10T06:24:32;16.00;81.40
17208;DHT22;8720;48.488;9.202;2023-05-10T06:26:59;16.00;81.60
17208;DHT22;8720;48.488;9.202;2023-05-10T06:29:29;16.10;81.60
17208;DHT22;8720;48.488;9.202;2023-05-10T06:31:56;16.10;80.60
17208;DHT22;8720;48.488;9.202;2023-05-10T06:34:24;16.10;81.60
17208;DHT22;8720;48.488;9.202;2023-05-10T06:36:51;16.10;81.90
17208;DHT22;8720;48.488;9.202;2023-05-10T06:39:18;16.20;81.50
17208;DHT22;8720;48.488;9.202;2023-05-10T06:41:45;16.20;81.00
17208;DHT22;8720;48.488;9.202;2023-05-10T06:44:13;16.20;81.00
17208;DHT22;8720;48.488;9.202;2023-05-10T06:46:41;16.20;81.00
17208;DHT22;8720;48.488;9.202;2023-05-10T06:49:09;16.30;80.70
17208;DHT22;8720;48.488;9.202;2023-05-10T06:51:36;16.30;82.50
17208;DHT22;8720;48.488;9.202;2023-05-10T06:54:03;16.40;81.90
17208;DHT22;8720;48.488;9.202;2023-05-10T06:56:30;16.40;82.00
17208;DHT22;8720;48.488;9.202;2023-05-10T06:58:57;16.50;82.20
17208;DHT22;8720;48.488;9.202;2023-05-10T07:01:25;16.50;81.30
17208;DHT22;8720;48.488;9.202;2023-05-10T07:03:53;16.60;81.30
17208;DHT22;8720;48.488;9.202;2023-05-10T07:06:21;16.60;80.30
17208;DHT22;8720;48.488;9.202;2023-05-10T07:08:48;16.70;81.00
17208;DHT22;8720;48.488;9.202;2023-05-10T07:11:15;16.80;81.30
17208;DHT22;8720;48.488;9.202;2023-05-10T07:13:42;16.80;80.30
17208;DHT22;8720;48.488;9.202;2023-05-10T07:16:12;16.90;80.50
17208;DHT22;8720;48.488;9.202;2023-05-10T07:18:39;16.90;80.10
17208;DHT22;8720;48.488;9.202;2023-05-10T07:21:08;17.00;79.90
17208;DHT22;8720;48.488;9.202;2023-05-10T07:23:35;17.00;78.40
17208;DHT22;8720;48.488;9.202;2023-05-10T07:26:02;17.10;78.90
17208;DHT22;8720;48.488;9.202;2023-05-10T07:28:30;17.10;78.10
17208;DHT22;8720;48.488;9.202;2023-05-10T07:30:57;17.10;77.80
17208;DHT22;8720;48.488;9.202;2023-05-10T07:33:24;17.10;78.10
17208;DHT22;8720;48.488;9.202;2023-05-10T07:35:51;17.10;78.10
17208;DHT22;8720;48.488;9.202;2023-05-10T07:38:20;17.20;77.70
17208;DHT22;8720;48.488;9.202;2023-05-10T07:40:47;17.20;77.10
17208;DHT22;8720;48.488;9.202;2023-05-10T07:43:15;17.20;78.40
17208;DHT22;8720;48.488;9.202;2023-05-10T07:45:42;17.20;78.00
17208;DHT22;8720;48.488;9.202;2023-05-10T07:48:09;17.20;77.50
17208;DHT22;8720;48.488;9.202;2023-05-10T07:50:36;17.20;77.50
17208;DHT22;8720;48.488;9.202;2023-05-10T07:53:04;17.20;77.90
17208;DHT22;8720;48.488;9.202;2023-05-10T07:55:33;17.20;77.30
17208;DHT22;8720;48.488;9.202;2023-05-10T07:58:00;17.20;76.80
17208;DHT22;8720;48.488;9.202;2023-05-10T08:00:28;17.20;77.30
17208;DHT22;8720;48.488;9.202;2023-05-10T08:02:55;17.20;77.30
17208;DHT22;8720;48.488;9.202;2023-05-10T08:05:22;17.30;77.70
17208;DHT22;8720;48.488;9.202;2023-05-10T08:07:50;17.30;77.70
17208;DHT22;8720;48.488;9.202;2023-05-10T08:10:17;17.30;77.30
17208;DHT22;8720;48.488;9.202;2023-05-10T08:12:46;17.30;77.00
17208;DHT22;8720;48.488;9.202;2023-05-10T08:15:13;17.40;76.70
17208;DHT22;8720;48.488;9.202;2023-05-10T08:17:40;17.40;77.40
17208;DHT22;8720;48.488;9.202;2023-05-10T08:20:09;17.50;77.50
17208;DHT22;8720;48.488;9.202;2023-05-10T08:22:38;17.50;76.10
17208;DHT22;8720;48.488;9.202;2023-05-10T08:25:06;17.50;76.70
17208;DHT22;8720;48.488;9.202;2023-05-10T08:27:34;17.60;75.60
17208;DHT22;8720;48.488;9.202;2023-05-10T08:30:03;17.60;76.30
17208;DHT22;8720;48.488;9.202;2023-05-10T08:32:31;17.70;75.70
17208;DHT22;8720;48.488;9.202;2023-05-10T08:34:58;17.70;76.50
17208;DHT22;8720;48.488;9.202;2023-05-10T08:37:25;17.80;76.70
17208;DHT22;8720;48.488;9.202;2023-05-10T08:39:56;17.90;76.90
17208;DHT22;8720;48.488;9.202;2023-05-10T08:42:26;18.00;77.00
17208;DHT22;8720;48.488;9.202;2023-05-10T08:44:59;18.10;73.40
17208;DHT22;8720;48.488;9.202;2023-05-10T08:47:29;18.10;74.40
17208;DHT22;8720;48.488;9.202;2023-05-10T08:49:58;18.20;74.80
17208;DHT22;8720;48.488;9.202;2023-05-10T08:52:26;18.30;73.80
17208;DHT22;8720;48.488;9.202;2023-05-10T08:54:56;18.40;73.60
17208;DHT22;8720;48.488;9.202;2023-05-10T08:57:24;18.50;73.40
17208;DHT22;8720;48.488;9.202;2023-05-10T08:59:51;18.60;73.50
17208;DHT22;8720;48.488;9.202;2023-05-10T09:02:21;18.70;73.70
17208;DHT22;8720;48.488;9.202;2023-05-10T09:04:50;18.70;71.50
17208;DHT22;8720;48.488;9.202;2023-05-10T09:07:17;18.80;71.50
17208;DHT22;8720;48.488;9.202;2023-05-10T09:09:46;18.90;71.50
17208;DHT22;8720;48.488;9.202;2023-05-10T09:12:13;18.90;70.40
17208;DHT22;8720;48.488;9.202;2023-05-10T09:14:42;18.90;70.30
17208;DHT22;8720;48.488;9.202;2023-05-10T09:17:12;18.90;69.60
17208;DHT22;8720;48.488;9.202;2023-05-10T09:19:41;19.00;69.60
17208;DHT22;8720;48.488;9.202;2023-05-10T09:22:10;19.00;68.70
17208;DHT22;8720;48.488;9.202;2023-05-10T09:24:37;19.00;68.20
17208;DHT22;8720;48.488;9.202;2023-05-10T09:27:08;19.00;69.10
17208;DHT22;8720;48.488;9.202;2023-05-10T09:29:42;19.00;68.70
17208;DHT22;8720;48.488;9.202;2023-05-10T09:32:10;18.90;65.80
17208;DHT22;8720;48.488;9.202;2023-05-10T09:34:37;19.00;68.50
17208;DHT22;8720;48.488;9.202;2023-05-10T09:37:07;19.00;68.10
17208;DHT22;8720;48.488;9.202;2023-05-10T09:39:35;19.00;67.60
17208;DHT22;8720;48.488;9.202;2023-05-10T09:42:05;19.00;68.00
17208;DHT22;8720;48.488;9.202;2023-05-10T09:44:33;19.00;67.90
17208;DHT22;8720;48.488;9.202;2023-05-10T09:47:01;19.10;68.10
17208;DHT22;8720;48.488;9.202;2023-05-10T09:49:29;19.10;67.90
17208;DHT22;8720;48.488;9.202;2023-05-10T09:52:01;19.20;67.40
17208;DHT22;8720;48.488;9.202;2023-05-10T09:54:31;19.30;65.90
17208;DHT22;8720;48.488;9.202;2023-05-10T09:56:59;19.30;66.10
17208;DHT22;8720;48.488;9.202;2023-05-10T09:59:27;19.40;66.60
17208;DHT22;8720;48.488;9.202;2023-05-10T10:01:56;19.50;66.30
17208;DHT22;8720;48.488;9.202;2023-05-10T10:04:27;19.50;64.80
17208;DHT22;8720;48.488;9.202;2023-05-10T10:07:04;19.60;64.80
17208;DHT22;8720;48.488;9.202;2023-05-10T10:09:34;19.60;61.20
17208;DHT22;8720;48.488;9.202;2023-05-10T10:12:02;19.60;63.80
17208;DHT22;8720;48.488;9.202;2023-05-10T10:14:30;19.60;64.80
17208;DHT22;8720;48.488;9.202;2023-05-10T10:17:00;19.60;65.20
17208;DHT22;8720;48.488;9.202;2023-05-10T10:19:28;19.50;64.40
17208;DHT22;8720;48.488;9.202;2023-05-10T10:21:57;19.50;65.70
17208;DHT22;8720;48.488;9.202;2023-05-10T10:24:24;19.50;66.30
17208;DHT22;8720;48.488;9.202;2023-05-10T10:26:55;19.40;66.50
17208;DHT22;8720;48.488;9.202;2023-05-10T10:29:34;19.30;65.10
17208;DHT22;8720;48.488;9.202;2023-05-10T10:32:10;19.30;65.70
17208;DHT22;8720;48.488;9.202;2023-05-10T10:34:49;19.20;66.20
17208;DHT22;8720;48.488;9.202;2023-05-10T10:37:17;19.20;67.00
17208;DHT22;8720;48.488;9.202;2023-05-10T10:39:48;19.10;67.30
17208;DHT22;8720;48.488;9.202;2023-05-10T10:42:43;19.10;67.00
17208;DHT22;8720;48.488;9.202;2023-05-10T10:45:12;19.00;65.80
17208;DHT22;8720;48.488;9.202;2023-05-10T10:47:39;19.00;68.30
17208;DHT22;8720;48.488;9.202;2023-05-10T10:50:09;19.00;68.10
17208;DHT22;8720;48.488;9.202;2023-05-10T10:52:39;19.00;68.00
17208;DHT22;8720;48.488;9.202;2023-05-10T10:55:09;19.00;68.00
17208;DHT22;8720;48.488;9.202;2023-05-10T10:57:47;19.10;67.70
17208;DHT22;8720;48.488;9.202;2023-05-10T11:00:25;19.10;65.70
17208;DHT22;8720;48.488;9.202;2023-05-10T11:02:56;19.10;67.30
17208;DHT22;8720;48.488;9.202;2023-05-10T11:05:36;19.10;67.30
17208;DHT22;8720;48.488;9.202;2023-05-10T11:08:17;19.10;66.70
17208;DHT22;8720;48.488;9.202;2023-05-10T11:11:02;19.20;67.30
17208;DHT22;8720;48.488;9.202;2023-05-10T11:13:38;19.20;67.10
17208;DHT22;8720;48.488;9.202;2023-05-10T11:16:15;19.30;68.20
17208;DHT22;8720;48.488;9.202;2023-05-10T11:19:01;19.40;67.40
17208;DHT22;8720;48.488;9.202;2023-05-10T11:21:29;19.50;65.50
17208;DHT22;8720;48.488;9.202;2023-05-10T11:23:58;19.60;68.60
17208;DHT22;8720;48.488;9.202;2023-05-10T11:26:31;19.70;69.00
17208;DHT22;8720;48.488;9.202;2023-05-10T11:29:02;19.70;68.30
17208;DHT22;8720;48.488;9.202;2023-05-10T11:31:30;19.80;64.00
17208;DHT22;8720;48.488;9.202;2023-05-10T11:33:58;19.80;63.20
17208;DHT22;8720;48.488;9.202;2023-05-10T11:36:28;19.70;61.90
17208;DHT22;8720;48.488;9.202;2023-05-10T11:38:59;19.60;62.00
17208;DHT22;8720;48.488;9.202;2023-05-10T11:41:28;19.40;61.10
17208;DHT22;8720;48.488;9.202;2023-05-10T11:43:57;19.20;60.40
17208;DHT22;8720;48.488;9.202;2023-05-10T11:46:27;19.00;61.30
17208;DHT22;8720;48.488;9.202;2023-05-10T11:48:58;18.90;60.60
17208;DHT22;8720;48.488;9.202;2023-05-10T11:51:32;18.80;60.30
17208;DHT22;8720;48.488;9.202;2023-05-10T11:54:01;18.70;61.20
17208;DHT22;8720;48.488;9.202;2023-05-10T11:56:32;18.60;61.50
17208;DHT22;8720;48.488;9.202;2023-05-10T11:59:00;18.60;62.00
17208;DHT22;8720;48.488;9.202;2023-05-10T12:01:30;18.50;62.80
17208;DHT22;8720;48.488;9.202;2023-05-10T12:03:58;18.50;63.00
17208;DHT22;8720;48.488;9.202;2023-05-10T12:06:28;18.40;63.40
17208;DHT22;8720;48.488;9.202;2023-05-10T12:08:57;18.30;63.90
17208;DHT22;8720;48.488;9.202;2023-05-10T12:11:26;18.30;65.10
17208;DHT22;8720;48.488;9.202;2023-05-10T12:13:55;18.30;65.10
17208;DHT22;8720;48.488;9.202;2023-05-10T12:16:24;18.20;64.40
17208;DHT22;8720;48.488;9.202;2023-05-10T12:18:57;18.20;64.30
17208;DHT22;8720;48.488;9.202;2023-05-10T12:21:28;18.10;64.80
17208;DHT22;8720;48.488;9.202;2023-05-10T12:24:02;18.10;64.40
17208;DHT22;8720;48.488;9.202;2023-05-10T12:26:30;18.10;64.80
17208;DHT22;8720;48.488;9.202;2023-05-10T12:29:12;18.10;65.50
17208;DHT22;8720;48.488;9.202;2023-05-10T12:31:54;18.10;63.20
17208;DHT22;8720;48.488;9.202;2023-05-10T12:34:31;18.10;63.20
17208;DHT22;8720;48.488;9.202;2023-05-10T12:36:59;18.10;62.80
17208;DHT22;8720;48.488;9.202;2023-05-10T12:39:39;18.20;65.00
17208;DHT22;8720;48.488;9.202;2023-05-10T12:42:07;18.20;63.00
17208;DHT22;8720;48.488;9.202;2023-05-10T12:44:35;18.30;65.10
17208;DHT22;8720;48.488;9.202;2023-05-10T12:47:02;18.30;65.10
17208;DHT22;8720;48.488;9.202;2023-05-10T12:49:31;18.40;64.40
17208;DHT22;8720;48.488;9.202;2023-05-10T12:51:58;18.40;63.40
17208;DHT22;8720;48.488;9.202;2023-05-10T12:54:25;18.50;64.00
17208;DHT22;8720;48.488;9.202;2023-05-10T12:56:53;18.50;63.70
17208;DHT22;8720;48.488;9.202;2023-05-10T12:59:20;18.60;64.80
17208;DHT22;8720;48.488;9.202;2023-05-10T13:01:48;18.70;64.30
17208;DHT22;8720;48.488;9.202;2023-05-10T13:04:15;18.70;62.80
17208;DHT22;8720;48.488;9.202;2023-05-10T13:06:44;18.70;63.20
17208;DHT22;8720;48.488;9.202;2023-05-10T13:09:11;18.70;63.10
17208;DHT22;8720;48.488;9.202;2023-05-10T13:11:38;18.80;63.50
17208;DHT22;8720;48.488;9.202;2023-05-10T13:14:06;18.90;63.50
17208;DHT22;8720;48.488;9.202;2023-05-10T13:16:33;18.90;63.30
17208;DHT22;8720;48.488;9.202;2023-05-10T13:19:01;19.00;63.40
17208;DHT22;8720;48.488;9.202;2023-05-10T13:21:28;19.00;63.10
17208;DHT22;8720;48.488;9.202;2023-05-10T13:23:57;19.00;62.60
17208;DHT22;8720;48.488;9.202;2023-05-10T13:26:25;19.10;62.30
17208;DHT22;8720;48.488;9.202;2023-05-10T13:28:53;19.10;63.10
17208;DHT22;8720;48.488;9.202;2023-05-10T13:31:21;19.20;62.80
17208;DHT22;8720;48.488;9.202;2023-05-10T13:33:48;19.20;62.60
17208;DHT22;8720;48.488;9.202;2023-05-10T13:36:15;19.30;62.50
17208;DHT22;8720;48.488;9.202;2023-05-10T13:38:43;19.30;62.20
17208;DHT22;8720;48.488;9.202;2023-05-10T13:41:11;19.30;62.00
17208;DHT22;8720;48.488;9.202;2023-05-10T13:43:39;19.30;60.60
17208;DHT22;8720;48.488;9.202;2023-05-10T13:46:06;19.40;62.00
17208;DHT22;8720;48.488;9.202;2023-05-10T13:48:33;19.40;61.70
17208;DHT22;8720;48.488;9.202;2023-05-10T13:51:02;19.40;62.00
17208;DHT22;8720;48.488;9.202;2023-05-10T13:53:29;19.50;61.90
17208;DHT22;8720;48.488;9.202;2023-05-10T13:55:57;19.50;61.40
17208;DHT22;8720;48.488;9.202;2023-05-10T13:58:26;19.50;61.40
17208;DHT22;8720;48.488;9.202;2023-05-10T14:00:53;19.60;60.30
17208;DHT22;8720;48.488;9.202;2023-05-10T14:03:20;19.60;60.60
17208;DHT22;8720;48.488;9.202;2023-05-10T14:05:47;19.60;60.70
17208;DHT22;8720;48.488;9.202;2023-05-10T14:08:15;19.60;60.50
17208;DHT22;8720;48.488;9.202;2023-05-10T14:10:43;19.60;59.90
17208;DHT22;8720;48.488;9.202;2023-05-10T14:13:10;19.60;60.20
17208;DHT22;8720;48.488;9.202;2023-05-10T14:15:39;19.60;60.30
17208;DHT22;8720;48.488;9.202;2023-05-10T14:18:06;19.60;59.40
17208;DHT22;8720;48.488;9.202;2023-05-10T14:20:33;19.60;59.80
17208;DHT22;8720;48.488;9.202;2023-05-10T14:23:01;19.70;59.00
17208;DHT22;8720;48.488;9.202;2023-05-10T14:25:28;19.70;59.60
17208;DHT22;8720;48.488;9.202;2023-05-10T14:27:55;19.70;59.60
17208;DHT22;8720;48.488;9.202;2023-05-10T14:30:22;19.70;59.70
17208;DHT22;8720;48.488;9.202;2023-05-10T14:32:51;19.70;58.60
17208;DHT22;8720;48.488;9.202;2023-05-10T14:35:19;19.70;58.40
17208;DHT22;8720;48.488;9.202;2023-05-10T14:37:47;19.70;59.20
17208;DHT22;8720;48.488;9.202;2023-05-10T14:40:14;19.70;58.50
17208;DHT22;8720;48.488;9.202;2023-05-10T14:42:42;19.70;58.80
17208;DHT22;8720;48.488;9.202;2023-05-10T14:45:10;19.70;58.30
17208;DHT22;8720;48.488;9.202;2023-05-10T14:47:38;19.70;58.60
17208;DHT22;8720;48.488;9.202;2023-05-10T14:50:07;19.80;58.40
17208;DHT22;8720;48.488;9.202;2023-05-10T14:52:35;19.70;56.80
17208;DHT22;8720;48.488;9.202;2023-05-10T14:55:02;19.70;57.80
17208;DHT22;8720;48.488;9.202;2023-05-10T14:57:30;19.70;57.70
17208;DHT22;8720;48.488;9.202;2023-05-10T14:59:58;19.70;58.40
17208;DHT22;8720;48.488;9.202;2023-05-10T15:02:25;19.70;58.20
17208;DHT22;8720;48.488;9.202;2023-05-10T15:04:52;19.60;57.80
17208;DHT22;8720;48.488;9.202;2023-05-10T15:07:21;19.60;58.20
17208;DHT22;8720;48.488;9.202;2023-05-10T15:09:48;19.60;58.20
17208;DHT22;8720;48.488;9.202;2023-05-10T15:12:17;19.60;58.10
17208;DHT22;8720;48.488;9.202;2023-05-10T15:14:44;19.60;58.20
17208;DHT22;8720;48.488;9.202;2023-05-10T15:17:12;19.60;58.30
17208;DHT22;8720;48.488;9.202;2023-05-10T15:19:39;19.60;58.50
17208;DHT22;8720;48.488;9.202;2023-05-10T15:22:06;19.60;58.70
17208;DHT22;8720;48.488;9.202;2023-05-10T15:24:35;19.60;58.40
17208;DHT22;8720;48.488;9.202;2023-05-10T15:27:02;19.60;57.90
17208;DHT22;8720;48.488;9.202;2023-05-10T15:29:30;19.60;58.10
17208;DHT22;8720;48.488;9.202;2023-05-10T15:31:58;19.60;58.30
17208;DHT22;8720;48.488;9.202;2023-05-10T15:34:25;19.60;58.10
17208;DHT22;8720;48.488;9.202;2023-05-10T15:36:52;19.50;58.10
17208;DHT22;8720;48.488;9.202;2023-05-10T15:39:19;19.50;58.40
17208;DHT22;8720;48.488;9.202;2023-05-10T15:41:48;19.50;58.40
17208;DHT22;8720;48.488;9.202;2023-05-10T15:44:15;19.50;57.60
17208;DHT22;8720;48.488;9.202;2023-05-10T15:46:44;19.50;58.10
17208;DHT22;8720;48.488;9.202;2023-05-10T15:49:11;19.50;58.40
17208;DHT22;8720;48.488;9.202;2023-05-10T15:51:40;19.50;58.60
17208;DHT22;8720;48.488;9.202;2023-05-10T15:54:07;19.40;57.90
17208;DHT22;8720;48.488;9.202;2023-05-10T15:56:34;19.40;58.30
17208;DHT22;8720;48.488;9.202;2023-05-10T15:59:04;19.40;58.30
17208;DHT22;8720;48.488;9.202;2023-05-10T16:01:33;19.30;57.90